createdAt,value
2022-12-11T00:30:54.591Z,1001.91
2022-12-11T00:31:35.182Z,1001.93
2022-12-11T00:32:15.706Z,1001.96
2022-12-11T00:32:56.106Z,1001.94
2022-12-11T00:33:36.651Z,1001.95
2022-12-11T00:34:17.179Z,1001.94
2022-12-11T00:34:57.642Z,1001.98
2022-12-11T00:35:38.077Z,1001.91
2022-12-11T00:36:18.570Z,1001.92
2022-12-11T00:36:59.261Z,1001.91
2022-12-11T00:37:39.616Z,1001.95
2022-12-11T00:38:20.085Z,1001.95
2022-12-11T00:39:00.534Z,1001.97
2022-12-11T00:39:41.055Z,1001.97
2022-12-11T00:40:21.526Z,1001.96
2022-12-11T00:41:02.077Z,1001.99
2022-12-11T00:41:42.563Z,1002.02
2022-12-11T00:42:23.075Z,1002.02
2022-12-11T00:43:03.605Z,1002
2022-12-11T00:43:44.869Z,1002
2022-12-11T00:44:24.626Z,1002.01
2022-12-11T00:45:05.117Z,1002.05
2022-12-11T00:45:45.572Z,1002.03
2022-12-11T00:46:26.151Z,1002.03
2022-12-11T00:47:46.994Z,1002
2022-12-11T00:48:27.624Z,1002.04
2022-12-11T00:49:08.159Z,1002.03
2022-12-11T00:49:50.075Z,1002.01
2022-12-11T00:50:29.153Z,1002
2022-12-11T00:51:10.373Z,1001.99
2022-12-11T00:51:50.184Z,1002
2022-12-11T00:52:30.630Z,1002.01
2022-12-11T00:53:11.155Z,1002.02
2022-12-11T00:53:51.638Z,1002.01
2022-12-11T00:54:32.074Z,1002.02
2022-12-11T00:55:12.744Z,1002.02
2022-12-11T00:55:53.113Z,1001.97
2022-12-11T00:56:33.526Z,1002.04
2022-12-11T00:57:14.114Z,1002.06
2022-12-11T00:57:54.520Z,1002.04
2022-12-11T00:58:35.002Z,1002.06
2022-12-11T00:59:15.469Z,1002.06
2022-12-11T00:59:55.965Z,1002.06
2022-12-11T01:00:36.465Z,1002.04
2022-12-11T01:01:17.007Z,1002.07
2022-12-11T01:01:57.986Z,1002.05
2022-12-11T01:02:38.500Z,1002.02
2022-12-11T01:03:19.016Z,1002.09
2022-12-11T01:03:59.512Z,1002.05
2022-12-11T01:04:39.972Z,1002.07
2022-12-11T01:05:20.438Z,1002.07
2022-12-11T01:06:00.997Z,1002.09
2022-12-11T01:06:41.488Z,1002.05
2022-12-11T01:07:21.925Z,1002.07
2022-12-11T01:08:02.468Z,1002.09
2022-12-11T01:08:43.015Z,1002.08
2022-12-11T01:09:23.432Z,1002.08
2022-12-11T01:10:03.936Z,1002.09
2022-12-11T01:10:44.410Z,1002.09
2022-12-11T01:11:24.902Z,1002.07
2022-12-11T01:12:05.395Z,1002.08
2022-12-11T01:12:45.922Z,1002.11
2022-12-11T01:13:26.416Z,1002.07
2022-12-11T01:14:06.964Z,1002.07
2022-12-11T01:14:47.413Z,1002.04
2022-12-11T01:15:27.898Z,1002.04
2022-12-11T01:16:08.378Z,1002.06
2022-12-11T01:16:48.950Z,1002.08
2022-12-11T01:17:29.372Z,1002.03
2022-12-11T01:18:09.815Z,1002.04
2022-12-11T01:18:50.334Z,1002.04
2022-12-11T01:19:30.807Z,1002.01
2022-12-11T01:20:11.321Z,1002.02
2022-12-11T01:20:51.845Z,1002.03
2022-12-11T01:21:32.348Z,1002.03
2022-12-11T01:22:12.906Z,1002.07
2022-12-11T01:22:53.365Z,1002.06
2022-12-11T01:23:33.903Z,1002.09
2022-12-11T01:24:14.437Z,1002.09
2022-12-11T01:24:54.906Z,1002.1
2022-12-11T01:25:35.432Z,1002.09
2022-12-11T01:26:15.934Z,1002.09
2022-12-11T01:26:56.438Z,1002.07
2022-12-11T01:28:17.463Z,1002.09
2022-12-11T01:28:57.996Z,1002.08
2022-12-11T01:29:38.441Z,1002.09
2022-12-11T01:30:19.005Z,1002.06
2022-12-11T01:30:59.480Z,1002.07
2022-12-11T01:31:39.925Z,1002.02
2022-12-11T01:32:20.468Z,1001.98
2022-12-11T01:33:00.924Z,1002.03
2022-12-11T01:33:41.366Z,1001.99
2022-12-11T01:34:21.854Z,1002
2022-12-11T01:35:02.369Z,1001.99
2022-12-11T01:35:42.836Z,1001.96
2022-12-11T01:36:23.340Z,1001.92
2022-12-11T01:37:03.917Z,1001.95
2022-12-11T01:37:44.370Z,1001.96
2022-12-11T01:38:24.945Z,1001.97
2022-12-11T01:39:05.346Z,1001.98
2022-12-11T01:39:45.852Z,1001.93
2022-12-11T01:40:26.314Z,1001.95
2022-12-11T01:41:06.832Z,1002.01
2022-12-11T01:41:47.315Z,1001.97
2022-12-11T01:42:27.804Z,1001.98
2022-12-11T01:43:08.342Z,1001.99
2022-12-11T01:43:48.809Z,1001.99
2022-12-11T01:44:29.328Z,1002.01
2022-12-11T01:45:09.965Z,1002.01
2022-12-11T01:45:50.349Z,1001.98
2022-12-11T01:46:30.842Z,1001.98
2022-12-11T01:47:11.325Z,1001.98
2022-12-11T01:47:51.773Z,1001.94
2022-12-11T01:48:32.324Z,1001.95
2022-12-11T01:49:12.795Z,1001.91
2022-12-11T01:49:53.331Z,1001.91
2022-12-11T01:50:33.836Z,1001.94
2022-12-11T01:51:14.296Z,1001.93
2022-12-11T01:51:54.824Z,1001.92
2022-12-11T01:52:35.327Z,1001.86
2022-12-11T01:53:56.311Z,1001.86
2022-12-11T01:54:36.796Z,1001.82
2022-12-11T01:55:17.370Z,1001.85
2022-12-11T01:55:57.793Z,1001.85
2022-12-11T01:56:38.313Z,1001.86
2022-12-11T01:57:18.834Z,1001.88
2022-12-11T01:57:59.299Z,1001.86
2022-12-11T01:58:39.797Z,1001.83
2022-12-11T01:59:20.292Z,1001.86
2022-12-11T02:00:00.788Z,1001.86
2022-12-11T02:01:21.842Z,1001.86
2022-12-11T02:02:02.364Z,1001.84
2022-12-11T02:02:42.863Z,1001.82
2022-12-11T02:03:23.329Z,1001.82
2022-12-11T02:04:03.865Z,1001.85
2022-12-11T02:04:44.388Z,1001.78
2022-12-11T02:05:24.852Z,1001.75
2022-12-11T02:06:05.322Z,1001.76
2022-12-11T02:06:45.858Z,1001.76
2022-12-11T02:07:26.375Z,1001.72
2022-12-11T02:08:06.860Z,1001.77
2022-12-11T02:08:47.309Z,1001.72
2022-12-11T02:09:27.837Z,1001.71
2022-12-11T02:10:08.326Z,1001.71
2022-12-11T02:10:48.805Z,1001.7
2022-12-11T02:11:29.262Z,1001.7
2022-12-11T02:12:09.794Z,1001.73
2022-12-11T02:12:50.257Z,1001.71
2022-12-11T02:13:30.766Z,1001.76
2022-12-11T02:14:11.237Z,1001.76
2022-12-11T02:14:51.729Z,1001.74
2022-12-11T02:15:32.221Z,1001.77
2022-12-11T02:16:12.782Z,1001.74
2022-12-11T02:16:53.212Z,1001.75
2022-12-11T02:17:33.686Z,1001.75
2022-12-11T02:18:14.193Z,1001.77
2022-12-11T02:18:54.647Z,1001.78
2022-12-11T02:19:35.182Z,1001.76
2022-12-11T02:20:15.652Z,1001.8
2022-12-11T02:20:56.152Z,1001.76
2022-12-11T02:21:36.711Z,1001.78
2022-12-11T02:22:17.905Z,1001.82
2022-12-11T02:22:58.310Z,1001.79
2022-12-11T02:23:38.798Z,1001.81
2022-12-11T02:24:19.326Z,1001.79
2022-12-11T02:24:59.780Z,1001.79
2022-12-11T02:25:40.226Z,1001.79
2022-12-11T02:26:20.730Z,1001.82
2022-12-11T02:27:01.245Z,1001.78
2022-12-11T02:27:41.818Z,1001.78
2022-12-11T02:28:22.235Z,1001.82
2022-12-11T02:29:43.252Z,1001.78
2022-12-11T02:30:23.737Z,1001.76
2022-12-11T02:31:04.282Z,1001.78
2022-12-11T02:31:44.898Z,1001.78
2022-12-11T02:32:25.271Z,1001.8
2022-12-11T02:33:05.819Z,1001.82
2022-12-11T02:33:46.278Z,1001.78
2022-12-11T02:34:26.760Z,1001.78
2022-12-11T02:35:07.252Z,1001.75
2022-12-11T02:35:47.721Z,1001.76
2022-12-11T02:36:28.211Z,1001.77
2022-12-11T02:37:08.722Z,1001.75
2022-12-11T02:37:49.234Z,1001.8
2022-12-11T02:38:29.676Z,1001.78
2022-12-11T02:39:10.258Z,1001.72
2022-12-11T02:39:50.780Z,1001.73
2022-12-11T02:40:31.203Z,1001.74
2022-12-11T02:41:11.655Z,1001.71
2022-12-11T02:43:24.715Z,1001.67
2022-12-11T02:44:05.216Z,1001.68
2022-12-11T02:44:45.694Z,1001.67
2022-12-11T02:45:26.176Z,1001.68
2022-12-11T02:46:06.748Z,1001.67
2022-12-11T02:46:47.178Z,1001.66
2022-12-11T02:47:27.639Z,1001.64
2022-12-11T02:48:08.160Z,1001.68
2022-12-11T02:48:48.634Z,1001.65
2022-12-11T02:49:29.144Z,1001.62
2022-12-11T02:50:09.661Z,1001.66
2022-12-11T02:50:50.157Z,1001.67
2022-12-11T02:53:49.863Z,1001.64
2022-12-11T02:54:30.115Z,1001.65
2022-12-11T02:55:10.881Z,1001.65
2022-12-11T02:55:51.143Z,1001.65
2022-12-11T02:56:31.599Z,1001.66
2022-12-11T02:57:12.094Z,1001.65
2022-12-11T02:57:52.561Z,1001.63
2022-12-11T02:58:33.060Z,1001.62
2022-12-11T02:59:13.558Z,1001.63
2022-12-11T02:59:54.045Z,1001.59
2022-12-11T03:00:34.563Z,1001.61
2022-12-11T03:01:15.118Z,1001.6
2022-12-11T03:01:55.538Z,1001.54
2022-12-11T03:02:36.086Z,1001.58
2022-12-11T03:03:16.532Z,1001.59
2022-12-11T03:03:57.041Z,1001.56
2022-12-11T03:04:37.550Z,1001.59
2022-12-11T03:05:18.064Z,1001.61
2022-12-11T03:05:58.599Z,1001.54
2022-12-11T03:06:39.113Z,1001.58
2022-12-11T03:07:19.623Z,1001.55
2022-12-11T03:08:00.174Z,1001.57
2022-12-11T03:08:40.600Z,1001.57
2022-12-11T03:09:21.119Z,1001.54
2022-12-11T03:10:01.582Z,1001.6
2022-12-11T03:10:42.045Z,1001.59
2022-12-11T03:11:22.529Z,1001.53
2022-12-11T03:12:43.561Z,1001.51
2022-12-11T03:13:24.060Z,1001.54
2022-12-11T03:14:04.625Z,1001.54
2022-12-11T03:14:45.069Z,1001.51
2022-12-11T03:15:25.557Z,1001.52
2022-12-11T03:16:06.098Z,1001.53
2022-12-11T03:16:46.557Z,1001.55
2022-12-11T03:17:27.093Z,1001.54
2022-12-11T03:18:07.578Z,1001.59
2022-12-11T03:18:48.059Z,1001.57
2022-12-11T03:19:28.544Z,1001.59
2022-12-11T03:20:09.060Z,1001.56
2022-12-11T03:20:49.566Z,1001.55
2022-12-11T03:21:30.102Z,1001.57
2022-12-11T03:22:10.589Z,1001.59
2022-12-11T03:22:51.114Z,1001.58
2022-12-11T03:23:31.650Z,1001.6
2022-12-11T03:24:12.110Z,1001.6
2022-12-11T03:25:33.111Z,1001.57
2022-12-11T03:26:13.665Z,1001.6
2022-12-11T03:26:56.451Z,1001.58
2022-12-11T03:27:34.666Z,1001.58
2022-12-11T03:28:15.180Z,1001.61
2022-12-11T03:28:55.677Z,1001.6
2022-12-11T03:29:36.111Z,1001.63
2022-12-11T03:30:16.609Z,1001.62
2022-12-11T03:30:57.188Z,1001.59
2022-12-11T03:31:37.655Z,1001.63
2022-12-11T03:32:18.113Z,1001.63
2022-12-11T03:32:58.630Z,1001.66
2022-12-11T03:33:39.109Z,1001.63
2022-12-11T03:34:19.610Z,1001.6
2022-12-11T03:35:00.078Z,1001.6
2022-12-11T03:35:40.559Z,1001.63
2022-12-11T03:36:21.093Z,1001.63
2022-12-11T03:37:01.541Z,1001.61
2022-12-11T03:38:22.553Z,1001.63
2022-12-11T03:39:03.084Z,1001.64
2022-12-11T03:39:43.609Z,1001.64
2022-12-11T03:40:24.100Z,1001.67
2022-12-11T03:41:04.591Z,1001.65
2022-12-11T03:41:45.041Z,1001.73
2022-12-11T03:42:25.517Z,1001.69
2022-12-11T03:43:05.996Z,1001.73
2022-12-11T03:43:46.521Z,1001.72
2022-12-11T03:44:26.985Z,1001.69
2022-12-11T03:45:48.015Z,1001.69
2022-12-11T03:46:28.561Z,1001.7
2022-12-11T03:47:09.048Z,1001.73
2022-12-11T03:47:49.577Z,1001.68
2022-12-11T03:48:30.068Z,1001.69
2022-12-11T03:49:10.594Z,1001.65
2022-12-11T03:49:51.047Z,1001.66
2022-12-11T03:50:31.521Z,1001.67
2022-12-11T03:51:12.023Z,1001.66
2022-12-11T03:51:52.530Z,1001.64
2022-12-11T03:52:32.991Z,1001.64
2022-12-11T03:53:13.498Z,1001.64
2022-12-11T03:53:53.992Z,1001.61
2022-12-11T03:54:34.485Z,1001.63
2022-12-11T03:55:55.467Z,1001.59
2022-12-11T03:56:35.955Z,1001.61
2022-12-11T03:57:16.494Z,1001.6
2022-12-11T03:57:56.972Z,1001.59
2022-12-11T03:58:37.489Z,1001.58
2022-12-11T03:59:18.041Z,1001.57
2022-12-11T03:59:58.505Z,1001.55
2022-12-11T04:00:39.051Z,1001.53
2022-12-11T04:01:19.523Z,1001.54
2022-12-11T04:02:00.127Z,1001.51
2022-12-11T04:02:40.521Z,1001.55
2022-12-11T04:03:21.021Z,1001.54
2022-12-11T04:04:01.551Z,1001.51
2022-12-11T04:04:41.980Z,1001.48
2022-12-11T04:05:22.489Z,1001.47
2022-12-11T04:06:03.116Z,1001.46
2022-12-11T04:06:43.565Z,1001.45
2022-12-11T04:07:24.091Z,1001.46
2022-12-11T04:08:04.582Z,1001.46
2022-12-11T04:08:45.083Z,1001.45
2022-12-11T04:09:25.586Z,1001.47
2022-12-11T04:10:06.072Z,1001.47
2022-12-11T04:10:46.566Z,1001.47
2022-12-11T04:11:27.076Z,1001.45
2022-12-11T04:12:07.603Z,1001.46
2022-12-11T04:12:48.068Z,1001.45
2022-12-11T04:13:28.575Z,1001.47
2022-12-11T04:14:09.067Z,1001.44
2022-12-11T04:14:49.575Z,1001.43
2022-12-11T04:15:30.017Z,1001.43
2022-12-11T04:18:43.785Z,1001.42
2022-12-11T04:19:24.200Z,1001.39
2022-12-11T04:20:04.668Z,1001.39
2022-12-11T04:20:45.087Z,1001.39
2022-12-11T04:21:25.630Z,1001.39
2022-12-11T04:22:06.097Z,1001.35
2022-12-11T04:22:46.566Z,1001.33
2022-12-11T04:23:27.095Z,1001.34
2022-12-11T04:24:48.052Z,1001.37
2022-12-11T04:25:28.537Z,1001.35
2022-12-11T04:26:09.018Z,1001.34
2022-12-11T04:26:49.502Z,1001.36
2022-12-11T04:27:30.005Z,1001.34
2022-12-11T04:28:10.525Z,1001.36
2022-12-11T04:28:50.977Z,1001.37
2022-12-11T04:29:31.470Z,1001.34
2022-12-11T04:30:11.944Z,1001.33
2022-12-11T04:30:52.559Z,1001.31
2022-12-11T04:31:32.970Z,1001.31
2022-12-11T04:32:13.440Z,1001.29
2022-12-11T04:32:53.913Z,1001.31
2022-12-11T04:33:34.421Z,1001.29
2022-12-11T04:34:55.439Z,1001.3
2022-12-11T04:35:35.948Z,1001.31
2022-12-11T04:36:16.373Z,1001.37
2022-12-11T04:36:56.878Z,1001.34
2022-12-11T04:37:37.351Z,1001.36
2022-12-11T04:38:17.871Z,1001.33
2022-12-11T04:38:58.331Z,1001.32
2022-12-11T04:39:38.806Z,1001.35
2022-12-11T04:40:19.348Z,1001.34
2022-12-11T04:40:59.862Z,1001.35
2022-12-11T04:41:40.321Z,1001.32
2022-12-11T04:42:20.792Z,1001.34
2022-12-11T04:43:01.268Z,1001.3
2022-12-11T04:43:41.758Z,1001.32
2022-12-11T04:44:22.225Z,1001.29
2022-12-11T04:45:02.756Z,1001.3
2022-12-11T04:45:43.242Z,1001.28
2022-12-11T04:46:23.760Z,1001.31
2022-12-11T04:47:04.212Z,1001.3
2022-12-11T04:47:44.709Z,1001.26
2022-12-11T04:48:25.198Z,1001.26
2022-12-11T04:49:05.692Z,1001.3
2022-12-11T04:49:46.191Z,1001.28
2022-12-11T04:50:26.647Z,1001.3
2022-12-11T04:51:07.149Z,1001.31
2022-12-11T04:51:47.657Z,1001.27
2022-12-11T04:52:28.134Z,1001.28
2022-12-11T04:53:08.626Z,1001.26
2022-12-11T04:53:49.151Z,1001.27
2022-12-11T04:54:29.666Z,1001.27
2022-12-11T04:55:10.475Z,1001.26
2022-12-11T04:55:50.639Z,1001.28
2022-12-11T04:56:31.127Z,1001.25
2022-12-11T04:57:11.616Z,1001.27
2022-12-11T04:57:52.082Z,1001.28
2022-12-11T04:58:32.567Z,1001.3
2022-12-11T04:59:13.020Z,1001.29
2022-12-11T04:59:53.523Z,1001.31
2022-12-11T05:00:33.990Z,1001.29
2022-12-11T05:01:14.485Z,1001.31
2022-12-11T05:02:35.541Z,1001.33
2022-12-11T05:03:15.998Z,1001.32
2022-12-11T05:03:56.517Z,1001.33
2022-12-11T05:04:36.952Z,1001.35
2022-12-11T05:05:17.434Z,1001.35
2022-12-11T05:05:57.884Z,1001.33
2022-12-11T05:06:38.417Z,1001.29
2022-12-11T05:07:18.913Z,1001.26
2022-12-11T05:07:59.464Z,1001.28
2022-12-11T05:08:39.898Z,1001.27
2022-12-11T05:10:00.865Z,1001.28
2022-12-11T05:10:44.495Z,1001.27
2022-12-11T05:11:21.869Z,1001.26
2022-12-11T05:12:02.385Z,1001.22
2022-12-11T05:12:42.828Z,1001.25
2022-12-11T05:13:23.318Z,1001.24
2022-12-11T05:14:03.803Z,1001.2
2022-12-11T05:14:44.330Z,1001.23
2022-12-11T05:15:24.791Z,1001.19
2022-12-11T05:16:05.312Z,1001.19
2022-12-11T05:16:45.718Z,1001.16
2022-12-11T05:17:26.223Z,1001.18
2022-12-11T05:18:06.685Z,1001.19
2022-12-11T05:18:47.178Z,1001.15
2022-12-11T05:19:27.682Z,1001.18
2022-12-11T05:20:08.242Z,1001.17
2022-12-11T05:20:48.683Z,1001.15
2022-12-11T05:21:34.729Z,1001.14
2022-12-11T05:22:09.652Z,1001.13
2022-12-11T05:22:50.225Z,1001.16
2022-12-11T05:23:30.736Z,1001.15
2022-12-11T05:24:11.204Z,1001.17
2022-12-11T05:24:51.759Z,1001.16
2022-12-11T05:25:32.165Z,1001.18
2022-12-11T05:26:12.653Z,1001.19
2022-12-11T05:26:53.138Z,1001.17
2022-12-11T05:27:33.640Z,1001.18
2022-12-11T05:28:14.121Z,1001.17
2022-12-11T05:28:54.603Z,1001.16
2022-12-11T05:29:35.103Z,1001.16
2022-12-11T05:30:15.551Z,1001.2
2022-12-11T05:30:56.096Z,1001.16
2022-12-11T05:31:36.569Z,1001.18
2022-12-11T05:32:17.051Z,1001.24
2022-12-11T05:32:57.490Z,1001.15
2022-12-11T05:33:37.974Z,1001.2
2022-12-11T05:34:18.462Z,1001.2
2022-12-11T05:34:58.942Z,1001.2
2022-12-11T05:35:39.441Z,1001.18
2022-12-11T05:36:19.926Z,1001.21
2022-12-11T05:37:00.386Z,1001.18
2022-12-11T05:37:40.864Z,1001.19
2022-12-11T05:38:21.338Z,1001.18
2022-12-11T05:39:01.813Z,1001.17
2022-12-11T05:39:42.281Z,1001.09
2022-12-11T05:40:22.825Z,1001.14
2022-12-11T05:41:03.301Z,1001.18
2022-12-11T05:41:43.771Z,1001.12
2022-12-11T05:42:28.748Z,1001.15
2022-12-11T05:43:04.748Z,1001.14
2022-12-11T05:43:45.233Z,1001.16
2022-12-11T05:45:06.209Z,1001.11
2022-12-11T05:45:46.710Z,1001.13
2022-12-11T05:46:27.233Z,1001.08
2022-12-11T05:47:07.659Z,1001.09
2022-12-11T05:47:48.191Z,1001.09
2022-12-11T05:48:28.666Z,1001.07
2022-12-11T05:49:09.226Z,1001.07
2022-12-11T05:49:50.259Z,1001.08
2022-12-11T05:50:30.177Z,1001.09
2022-12-11T05:51:10.732Z,1001.06
2022-12-11T05:51:51.224Z,1001.09
2022-12-11T05:52:31.719Z,1001.08
2022-12-11T06:32:19.369Z,1000.97
2022-12-11T06:32:59.868Z,1000.95
2022-12-11T06:33:40.309Z,1000.99
2022-12-11T06:34:20.795Z,1001.02
2022-12-11T06:35:01.296Z,1001.03
2022-12-11T06:35:42.560Z,1001.02
2022-12-11T06:36:22.268Z,1001.01
2022-12-11T06:37:02.773Z,1001
2022-12-11T06:37:43.214Z,1000.98
2022-12-11T06:38:23.706Z,1001
2022-12-11T06:39:04.188Z,1000.96
2022-12-11T06:39:44.655Z,1000.95
2022-12-11T06:40:25.171Z,1000.98
2022-12-11T06:41:46.117Z,1000.96
2022-12-11T06:42:26.596Z,1000.97
2022-12-11T06:43:07.073Z,1000.94
2022-12-11T06:43:47.561Z,1000.92
2022-12-11T06:44:28.049Z,1000.94
2022-12-11T06:45:08.870Z,1000.97
2022-12-11T06:45:49.073Z,1000.93
2022-12-11T06:46:29.498Z,1000.98
2022-12-11T06:47:09.961Z,1000.95
2022-12-11T06:47:50.467Z,1000.97
2022-12-11T06:48:30.951Z,1001
2022-12-11T06:49:11.465Z,1001.01
2022-12-11T06:49:51.904Z,1001
2022-12-11T06:50:32.379Z,1001.04
2022-12-11T06:51:53.384Z,1001.04
2022-12-11T06:52:33.790Z,1001.04
2022-12-11T06:53:14.300Z,1001.04
2022-12-11T06:53:54.747Z,1001.04
2022-12-11T06:54:35.212Z,1001.05
2022-12-11T06:55:15.707Z,1001.04
2022-12-11T06:55:56.217Z,1001.06
2022-12-11T06:56:36.687Z,1001.08
2022-12-11T06:57:17.183Z,1001.05
2022-12-11T06:57:57.648Z,1001.05
2022-12-11T06:58:38.125Z,1001.06
2022-12-11T06:59:18.586Z,1001.06
2022-12-11T06:59:59.095Z,1001.06
2022-12-11T07:00:39.596Z,1001.07
2022-12-11T07:01:20.125Z,1001.09
2022-12-11T07:02:00.601Z,1001.08
2022-12-11T07:02:41.086Z,1001.06
2022-12-11T07:03:21.546Z,1001.08
2022-12-11T07:04:02.027Z,1001.08
2022-12-11T07:04:42.550Z,1001.1
2022-12-11T07:05:22.982Z,1001.11
2022-12-11T07:06:03.469Z,1001.09
2022-12-11T07:06:43.963Z,1001.12
2022-12-11T07:07:24.431Z,1001.12
2022-12-11T07:08:04.971Z,1001.15
2022-12-11T07:08:45.412Z,1001.13
2022-12-11T07:09:25.892Z,1001.16
2022-12-11T07:10:08.479Z,1001.13
2022-12-11T07:10:46.867Z,1001.16
2022-12-11T07:11:27.340Z,1001.16
2022-12-11T07:12:07.826Z,1001.16
2022-12-11T07:12:48.323Z,1001.14
2022-12-11T07:13:28.804Z,1001.15
2022-12-11T07:14:09.324Z,1001.16
2022-12-11T07:14:49.823Z,1001.17
2022-12-11T07:15:30.317Z,1001.15
2022-12-11T07:16:11.114Z,1001.15
2022-12-11T07:16:51.327Z,1001.15
2022-12-11T07:17:31.806Z,1001.13
2022-12-11T07:18:12.310Z,1001.17
2022-12-11T07:19:33.247Z,1001.17
2022-12-11T07:20:13.744Z,1001.16
2022-12-11T07:20:54.262Z,1001.19
2022-12-11T07:21:34.741Z,1001.18
2022-12-11T07:22:15.243Z,1001.16
2022-12-11T07:22:55.741Z,1001.21
2022-12-11T07:23:36.252Z,1001.16
2022-12-11T07:24:16.748Z,1001.19
2022-12-11T07:24:57.222Z,1001.16
2022-12-11T07:25:37.703Z,1001.16
2022-12-11T07:26:58.674Z,1001.11
2022-12-11T07:27:39.165Z,1001.13
2022-12-11T07:28:19.638Z,1001.1
2022-12-11T07:29:00.130Z,1001.1
2022-12-11T07:29:40.609Z,1001.15
2022-12-11T07:30:21.102Z,1001.1
2022-12-11T07:31:01.596Z,1001.07
2022-12-11T07:31:42.126Z,1001.1
2022-12-11T07:32:22.754Z,1001.05
2022-12-11T07:33:03.158Z,1001.04
2022-12-11T07:33:43.542Z,1001.01
2022-12-11T07:34:24.071Z,1001.01
2022-12-11T07:35:04.545Z,1001.01
2022-12-11T07:35:45.034Z,1001
2022-12-11T07:36:25.535Z,1000.99
2022-12-11T07:37:06.022Z,1000.99
2022-12-11T07:37:46.553Z,1001
2022-12-11T07:38:27.046Z,1001.01
2022-12-11T07:39:07.519Z,1001.04
2022-12-11T07:39:48.021Z,1001.01
2022-12-11T07:40:28.481Z,1001.04
2022-12-11T07:41:08.970Z,1001.02
2022-12-11T07:41:49.455Z,1001.04
2022-12-11T07:42:29.930Z,1001.07
2022-12-11T07:43:10.476Z,1001.07
2022-12-11T07:43:50.922Z,1001.07
2022-12-11T07:44:31.420Z,1001.11
2022-12-11T07:45:12.263Z,1001.09
2022-12-11T07:45:52.433Z,1001.06
2022-12-11T07:47:13.335Z,1001.11
2022-12-11T07:47:53.875Z,1001.1
2022-12-11T07:48:34.351Z,1001.08
2022-12-11T07:49:14.865Z,1001.05
2022-12-11T07:49:55.345Z,1001.05
2022-12-11T07:50:39.699Z,1001.07
2022-12-11T07:51:16.280Z,1001.09
2022-12-11T07:51:56.770Z,1001.04
2022-12-11T07:52:37.236Z,1001.08
2022-12-11T07:53:17.725Z,1001.09
2022-12-11T07:53:58.223Z,1001.07
2022-12-11T07:54:38.685Z,1001.07
2022-12-11T07:55:19.146Z,1001.09
2022-12-11T07:55:59.669Z,1001.04
2022-12-11T07:57:20.617Z,1001.05
2022-12-11T07:58:01.142Z,1001.06
2022-12-11T07:58:41.588Z,1001.09
2022-12-11T07:59:22.079Z,1001.06
2022-12-11T08:00:02.585Z,1001.09
2022-12-11T08:00:43.130Z,1001.08
2022-12-11T08:01:23.737Z,1001.05
2022-12-11T08:02:04.190Z,1001.05
2022-12-11T08:02:44.681Z,1001.06
2022-12-11T08:03:25.142Z,1001
2022-12-11T08:04:05.602Z,1001.01
2022-12-11T08:04:46.081Z,1000.98
2022-12-11T08:06:07.081Z,1001.01
2022-12-11T08:06:47.525Z,1001.01
2022-12-11T08:07:28.002Z,1001.03
2022-12-11T08:08:08.595Z,1000.98
2022-12-11T08:08:49.025Z,1001.04
2022-12-11T08:09:29.488Z,1001.02
2022-12-11T08:10:09.973Z,1001.05
2022-12-11T08:10:50.459Z,1001.07
2022-12-11T08:11:30.931Z,1001.04
2022-12-11T08:12:11.446Z,1001.03
2022-12-11T08:12:51.899Z,1001.04
2022-12-11T08:13:32.424Z,1001.04
2022-12-11T08:14:12.901Z,1001.02
2022-12-11T08:14:53.486Z,1001.02
2022-12-11T08:15:33.919Z,1001.01
2022-12-11T08:16:14.503Z,1001.01
2022-12-11T08:16:55.070Z,1001.04
2022-12-11T08:17:39.965Z,1001
2022-12-11T08:18:15.972Z,1000.99
2022-12-11T08:18:56.459Z,1000.99
2022-12-11T08:19:36.926Z,1000.98
2022-12-11T08:20:17.422Z,1000.97
2022-12-11T08:20:57.915Z,1000.96
2022-12-11T08:21:38.433Z,1000.94
2022-12-11T08:22:18.917Z,1000.93
2022-12-11T08:22:59.483Z,1000.91
2022-12-11T08:23:39.869Z,1000.92
2022-12-11T08:24:20.385Z,1000.92
2022-12-11T08:25:00.888Z,1000.93
2022-12-11T08:25:41.355Z,1000.92
2022-12-11T08:26:21.817Z,1000.94
2022-12-11T08:27:42.775Z,1000.98
2022-12-11T08:28:23.270Z,1000.98
2022-12-11T08:29:03.746Z,1001.02
2022-12-11T08:29:44.237Z,1001.02
2022-12-11T08:30:24.828Z,1001.06
2022-12-11T08:31:05.326Z,1001.04
2022-12-11T08:31:45.734Z,1001.07
2022-12-11T08:32:26.253Z,1001.04
2022-12-11T08:33:06.704Z,1001.09
2022-12-11T08:33:47.206Z,1001.07
2022-12-11T08:34:27.648Z,1001.07
2022-12-11T08:35:08.420Z,1001.06
2022-12-11T08:35:48.686Z,1001.06
2022-12-11T08:36:29.134Z,1001.06
2022-12-11T08:37:50.132Z,1001.04
2022-12-11T08:38:30.587Z,1001.04
2022-12-11T08:39:11.085Z,1001.08
2022-12-11T08:44:16.213Z,1001.09
2022-12-11T08:44:54.623Z,1000.76
2022-12-11T08:45:35.021Z,1001.13
2022-12-11T08:46:15.612Z,1001.11
2022-12-11T08:46:55.995Z,1001.1
2022-12-11T08:47:36.539Z,1001.11
2022-12-11T08:50:50.865Z,1001.12
2022-12-11T08:51:31.177Z,1001.06
2022-12-11T08:52:11.737Z,1001.11
2022-12-11T08:52:52.378Z,1001.09
2022-12-11T08:53:32.801Z,1001.11
2022-12-11T08:54:13.437Z,1001.11
2022-12-11T08:54:53.891Z,1001.09
2022-12-11T08:55:34.432Z,1001.13
2022-12-11T08:56:14.948Z,1001.13
2022-12-11T08:56:58.081Z,1001.14
2022-12-11T08:57:35.883Z,1001.14
2022-12-11T08:58:16.529Z,1001.17
2022-12-11T08:58:56.988Z,1001.15
2022-12-11T08:59:37.479Z,1001.12
2022-12-11T09:00:17.991Z,1001.15
2022-12-11T09:00:58.530Z,1001.13
2022-12-11T09:01:38.982Z,1001.13
2022-12-11T09:02:19.413Z,1001.16
2022-12-11T09:02:59.897Z,1001.13
2022-12-11T09:03:40.365Z,1001.14
2022-12-11T09:04:20.927Z,1001.13
2022-12-11T09:05:01.454Z,1001.15
2022-12-11T09:05:41.889Z,1001.12
2022-12-11T09:06:22.404Z,1001.1
2022-12-11T09:07:03.082Z,1001.08
2022-12-11T09:07:43.595Z,1001.11
2022-12-11T09:08:24.124Z,1001.11
2022-12-11T09:09:04.570Z,1001.1
2022-12-11T09:09:45.051Z,1001.08
2022-12-11T09:10:25.562Z,1001.09
2022-12-11T09:11:06.034Z,1001.1
2022-12-11T09:11:46.505Z,1001.12
2022-12-11T09:12:26.992Z,1001.09
2022-12-11T09:13:07.463Z,1001.09
2022-12-11T09:13:47.951Z,1001.08
2022-12-11T09:14:28.428Z,1001.09
2022-12-11T09:15:09.288Z,1001.09
2022-12-11T09:15:49.399Z,1001.1
2022-12-11T09:16:29.884Z,1001.06
2022-12-11T09:17:10.660Z,1001.07
2022-12-11T09:17:51.183Z,1001.05
2022-12-11T09:18:31.639Z,1001.08
2022-12-11T09:19:12.224Z,1001.09
2022-12-11T09:19:52.652Z,1001.11
2022-12-11T09:20:33.163Z,1001.11
2022-12-11T09:21:13.601Z,1001.09
2022-12-11T09:21:54.078Z,1001.13
2022-12-11T09:22:34.573Z,1001.12
2022-12-11T09:23:15.051Z,1001.09
2022-12-11T09:23:55.557Z,1001.11
2022-12-11T09:24:36.034Z,1001.13
2022-12-11T09:25:16.521Z,1001.14
2022-12-11T09:25:57.021Z,1001.14
2022-12-11T09:26:37.504Z,1001.13
2022-12-11T09:27:17.993Z,1001.1
2022-12-11T09:27:58.464Z,1001.13
2022-12-11T09:28:42.829Z,1001.13
2022-12-11T09:29:19.557Z,1001.1
2022-12-11T09:30:00.081Z,1001.1
2022-12-11T09:30:40.603Z,1001.13
2022-12-11T09:31:21.124Z,1001.11
2022-12-11T09:32:01.593Z,1001.1
2022-12-11T09:32:42.078Z,1001.1
2022-12-11T09:33:22.573Z,1001.11
2022-12-11T09:34:03.073Z,1001.1
2022-12-11T09:34:43.579Z,1001.11
2022-12-11T09:35:24.121Z,1001.14
2022-12-11T09:36:04.695Z,1001.12
2022-12-11T09:36:45.144Z,1001.1
2022-12-11T09:37:25.597Z,1001.1
2022-12-11T09:38:06.235Z,1001.1
2022-12-11T09:38:46.607Z,1001.08
2022-12-11T09:42:27.274Z,1001.06
2022-12-11T09:43:07.226Z,1001.08
2022-12-11T09:43:47.721Z,1001.12
2022-12-11T09:44:28.233Z,1001.11
2022-12-11T09:45:08.937Z,1001.13
2022-12-11T09:45:49.332Z,1001.14
2022-12-11T09:46:33.868Z,1001.11
2022-12-11T09:47:10.428Z,1001.09
2022-12-11T09:47:50.879Z,1001.13
2022-12-11T09:48:31.392Z,1001.1
2022-12-11T09:49:11.968Z,1001.05
2022-12-11T09:49:52.409Z,1001.09
2022-12-11T09:50:32.929Z,1001.09
2022-12-11T09:51:13.419Z,1001.09
2022-12-11T09:51:53.871Z,1001.07
2022-12-11T09:52:34.500Z,1001.06
2022-12-11T09:53:14.999Z,1001.06
2022-12-11T09:53:55.474Z,1001.06